Time;durP1;ratioP1;P1;durP2;ratioP2;P2;SDS_P1;SDS_P2;PMS_P1;PMS_P2;Temp;Humidity;BMP_temperature;BMP_pressure;BME280_temperature;BME280_humidity;BME280_pressure;Samples;Min_cycle;Max_cycle;Signal;HPM_P1;HPM_P2
2021/08/10 00:00:11;;;;;;;0.00;0.00;;;22.00;73.40;;;;;;5061004;28;20076;-90
2021/08/10 00:02:36;;;;;;;0.00;0.00;;;22.00;73.60;;;;;;5067248;28;20554;-91
2021/08/10 00:05:05;;;;;;;0.00;0.00;;;22.00;73.80;;;;;;5062598;28;20056;-90
2021/08/10 00:07:31;;;;;;;0.00;0.00;;;22.00;74.00;;;;;;5059717;28;20025;-90
2021/08/10 00:09:57;;;;;;;0.00;0.00;;;22.00;74.00;;;;;;5075943;28;20033;-90
2021/08/10 00:12:22;;;;;;;0.00;0.00;;;22.00;74.20;;;;;;5068091;28;20041;-91
2021/08/10 00:14:48;;;;;;;0.00;0.00;;;22.00;74.40;;;;;;5067693;28;20056;-90
2021/08/10 00:17:14;;;;;;;0.00;0.00;;;22.00;74.60;;;;;;5055821;28;20037;-91
2021/08/10 00:19:40;;;;;;;0.00;0.00;;;21.90;74.80;;;;;;5055979;28;20370;-90
2021/08/10 00:22:06;;;;;;;0.00;0.00;;;21.90;75.10;;;;;;5055881;28;20386;-91
2021/08/10 00:24:32;;;;;;;0.00;0.00;;;21.90;75.40;;;;;;5055796;28;20036;-90
2021/08/10 00:27:01;;;;;;;0.00;0.00;;;21.90;75.70;;;;;;5055269;28;20025;-90
2021/08/10 00:29:27;;;;;;;0.00;0.00;;;21.80;76.00;;;;;;5057599;28;20029;-89
2021/08/10 00:31:52;;;;;;;0.00;0.00;;;21.80;76.20;;;;;;5057237;28;20033;-90
2021/08/10 00:34:18;;;;;;;0.00;0.00;;;21.80;76.50;;;;;;5055453;28;20162;-91
2021/08/10 00:36:44;;;;;;;0.00;0.00;;;21.80;76.70;;;;;;5056456;28;20029;-90
2021/08/10 00:39:10;;;;;;;0.00;0.00;;;21.70;77.00;;;;;;5072643;28;20090;-91
2021/08/10 00:41:36;;;;;;;0.00;0.00;;;21.70;77.50;;;;;;5074615;28;20021;-91
2021/08/10 00:44:02;;;;;;;0.00;0.00;;;21.60;77.80;;;;;;5074263;28;20044;-91
2021/08/10 00:46:28;;;;;;;0.00;0.00;;;21.60;78.20;;;;;;5058958;28;20025;-90
2021/08/10 00:48:54;;;;;;;0.00;0.00;;;21.60;78.40;;;;;;5058105;28;20025;-91
2021/08/10 00:51:20;;;;;;;0.03;0.03;;;21.50;78.60;;;;;;5063146;28;20036;-91
2021/08/10 00:53:46;;;;;;;0.00;0.00;;;21.50;79.10;;;;;;5061619;28;20037;-91
2021/08/10 00:56:12;;;;;;;0.00;0.00;;;21.50;79.30;;;;;;5058424;28;20048;-91
2021/08/10 00:58:38;;;;;;;0.00;0.00;;;21.50;79.90;;;;;;5058500;28;20041;-91
2021/08/10 01:01:07;;;;;;;0.00;0.00;;;21.40;80.00;;;;;;5060583;28;20029;-89
2021/08/10 01:03:33;;;;;;;0.00;0.00;;;21.40;80.50;;;;;;5064836;28;20569;-90
2021/08/10 01:06:02;;;;;;;0.00;0.00;;;21.40;80.90;;;;;;5069369;28;20025;-90
2021/08/10 01:08:53;;;;;;;0.00;0.00;;;21.30;81.20;;;;;;5067088;28;20381;-90
2021/08/10 01:11:35;;;;;;;0.00;0.00;;;21.30;81.60;;;;;;5071027;28;20075;-90
2021/08/10 01:14:19;;;;;;;0.00;0.00;;;21.30;81.60;;;;;;5077015;28;20112;-90
2021/08/10 01:16:56;;;;;;;0.10;0.10;;;21.20;82.40;;;;;;5060944;28;20032;-91
2021/08/10 01:19:43;;;;;;;0.00;0.00;;;21.20;82.80;;;;;;5057257;28;20037;-90
2021/08/10 01:22:13;;;;;;;0.00;0.00;;;21.20;83.20;;;;;;5057612;28;20032;-90
2021/08/10 01:25:02;;;;;;;0.10;0.10;;;21.20;84.00;;;;;;5066315;28;20029;-90
2021/08/10 01:27:59;;;;;;;0.00;0.00;;;21.10;84.70;;;;;;5062715;28;20092;-89
2021/08/10 01:30:31;;;;;;;0.03;0.03;;;21.10;85.00;;;;;;5066994;28;20033;-90
2021/08/10 01:32:59;;;;;;;0.00;0.00;;;21.00;85.50;;;;;;5070790;28;20051;-91
2021/08/10 01:35:26;;;;;;;0.00;0.00;;;21.00;86.50;;;;;;5080561;28;20016;-90
2021/08/10 01:37:56;;;;;;;0.00;0.00;;;21.00;87.00;;;;;;5070715;28;20116;-91
2021/08/10 01:40:25;;;;;;;0.00;0.00;;;21.00;87.60;;;;;;5069266;28;20025;-90
2021/08/10 01:42:53;;;;;;;0.00;0.00;;;21.00;88.20;;;;;;5057446;28;20389;-90
2021/08/10 01:45:20;;;;;;;0.00;0.00;;;21.00;88.50;;;;;;5057653;28;20397;-90
2021/08/10 01:47:47;;;;;;;0.00;0.00;;;20.90;88.90;;;;;;5057001;28;20025;-92
2021/08/10 01:50:14;;;;;;;0.00;0.00;;;20.90;89.30;;;;;;5057002;28;20061;-90
2021/08/10 01:52:42;;;;;;;0.00;0.00;;;20.90;89.80;;;;;;5058932;28;20494;-90
2021/08/10 01:55:09;;;;;;;0.00;0.00;;;20.90;89.90;;;;;;5058841;28;20032;-90
2021/08/10 01:57:36;;;;;;;0.00;0.00;;;20.90;90.00;;;;;;5062371;28;20025;-91
2021/08/10 02:00:04;;;;;;;0.00;0.00;;;20.90;90.30;;;;;;5065093;28;20025;-90
2021/08/10 02:02:31;;;;;;;0.00;0.00;;;20.80;90.40;;;;;;5063734;28;20032;-91
2021/08/10 02:04:58;;;;;;;0.00;0.00;;;20.80;90.60;;;;;;5073419;28;20037;-90
2021/08/10 02:07:24;;;;;;;0.00;0.00;;;20.80;90.80;;;;;;5067421;28;20060;-90
2021/08/10 02:09:50;;;;;;;0.10;0.10;;;20.80;90.90;;;;;;5075762;28;20034;-90
2021/08/10 02:12:16;;;;;;;0.10;0.10;;;20.80;90.90;;;;;;5063750;28;20044;-90
2021/08/10 02:14:44;;;;;;;0.08;0.08;;;20.70;91.00;;;;;;5064000;28;20021;-90
2021/08/10 02:17:15;;;;;;;0.00;0.00;;;20.80;91.10;;;;;;5074935;28;20037;-89
2021/08/10 02:19:42;;;;;;;0.05;0.05;;;20.70;91.00;;;;;;5064010;28;20051;-90
2021/08/10 02:22:16;;;;;;;0.10;0.10;;;20.70;91.00;;;;;;5060587;28;20466;-90
2021/08/10 02:25:08;;;;;;;0.10;0.10;;;20.80;91.00;;;;;;5058269;28;20025;-90
2021/08/10 02:27:38;;;;;;;0.13;0.05;;;20.70;91.00;;;;;;5077334;28;20032;-90
2021/08/10 02:30:10;;;;;;;0.00;0.00;;;20.70;91.10;;;;;;5068205;28;20119;-90
2021/08/10 02:32:37;;;;;;;0.00;0.00;;;20.70;91.20;;;;;;5057027;28;20041;-91
2021/08/10 02:35:04;;;;;;;0.00;0.00;;;20.70;91.40;;;;;;5057056;28;20074;-91
2021/08/10 02:37:32;;;;;;;0.00;0.00;;;20.60;91.40;;;;;;5058844;28;20025;-90
2021/08/10 02:40:00;;;;;;;0.00;0.00;;;20.70;91.60;;;;;;5059664;28;20029;-90
2021/08/10 02:42:26;;;;;;;0.00;0.00;;;20.60;91.70;;;;;;5060507;28;20120;-91
2021/08/10 02:44:55;;;;;;;0.00;0.00;;;20.60;91.70;;;;;;5056258;28;20512;-91
2021/08/10 02:47:20;;;;;;;0.00;0.00;;;20.60;91.90;;;;;;5055673;28;20060;-91
2021/08/10 02:49:46;;;;;;;0.00;0.00;;;20.60;92.10;;;;;;5056341;28;20493;-91
2021/08/10 02:52:12;;;;;;;0.00;0.00;;;20.60;92.10;;;;;;5057176;28;20390;-91
2021/08/10 02:54:39;;;;;;;0.05;0.00;;;20.60;92.40;;;;;;5056605;28;20032;-91
2021/08/10 02:57:22;;;;;;;0.00;0.00;;;20.60;92.50;;;;;;5058465;28;20035;-91
2021/08/10 02:59:53;;;;;;;0.00;0.00;;;20.50;92.80;;;;;;5058618;28;20180;-90
2021/08/10 03:02:26;;;;;;;0.00;0.00;;;20.50;93.00;;;;;;5063650;28;20025;-90
2021/08/10 03:04:57;;;;;;;0.03;0.03;;;20.50;93.10;;;;;;5073532;28;20033;-91
2021/08/10 03:07:25;;;;;;;0.10;0.10;;;20.50;93.30;;;;;;5074102;28;20025;-91
2021/08/10 03:10:01;;;;;;;0.00;0.00;;;20.50;93.60;;;;;;5073383;28;20024;-91
2021/08/10 03:12:35;;;;;;;0.03;0.03;;;20.50;93.60;;;;;;5071764;28;20091;-90
2021/08/10 03:15:01;;;;;;;0.10;0.10;;;20.50;94.00;;;;;;5059969;28;20059;-91
2021/08/10 03:17:33;;;;;;;0.10;0.10;;;20.50;94.30;;;;;;5058191;28;20116;-92
2021/08/10 03:20:00;;;;;;;0.00;0.00;;;20.50;94.60;;;;;;5075306;28;20009;-91
2021/08/10 03:22:27;;;;;;;0.00;0.00;;;20.60;95.00;;;;;;5078074;28;20100;-91
2021/08/10 03:24:58;;;;;;;0.10;0.10;;;20.60;95.20;;;;;;5067278;28;20089;-90
2021/08/10 03:27:24;;;;;;;0.00;0.00;;;20.60;95.60;;;;;;5058771;28;20063;-90
2021/08/10 03:29:53;;;;;;;0.00;0.00;;;20.60;95.90;;;;;;5054656;28;20075;-90
2021/08/10 03:32:19;;;;;;;0.10;0.10;;;20.70;96.00;;;;;;5054506;28;20406;-91
2021/08/10 03:34:46;;;;;;;0.00;0.00;;;20.70;96.10;;;;;;5055916;28;20021;-90
2021/08/10 03:37:15;;;;;;;0.10;0.10;;;20.80;96.20;;;;;;5056117;28;20036;-91
2021/08/10 03:39:41;;;;;;;0.00;0.00;;;20.80;96.40;;;;;;5055142;28;20032;-90
2021/08/10 03:42:08;;;;;;;0.00;0.00;;;20.80;96.50;;;;;;5055026;28;20466;-89
2021/08/10 03:44:36;;;;;;;0.00;0.00;;;20.90;96.50;;;;;;5056833;28;20075;-92
2021/08/10 03:47:06;;;;;;;0.10;0.10;;;21.00;96.60;;;;;;5062249;28;20040;-92
2021/08/10 03:49:32;;;;;;;0.00;0.00;;;21.00;96.60;;;;;;5056154;28;20048;-91
2021/08/10 03:51:58;;;;;;;0.10;0.10;;;21.00;96.70;;;;;;5055452;28;20393;-91
2021/08/10 03:54:24;;;;;;;0.00;0.00;;;21.10;96.70;;;;;;5054117;28;20124;-92
2021/08/10 03:56:51;;;;;;;0.08;0.08;;;21.20;96.80;;;;;;5055941;28;20125;-90
2021/08/10 03:59:20;;;;;;;0.00;0.00;;;21.30;96.70;;;;;;5060712;28;20581;-90
2021/08/10 04:01:49;;;;;;;0.00;0.00;;;21.40;96.60;;;;;;5055886;28;20036;-89
2021/08/10 04:04:15;;;;;;;0.10;0.10;;;21.40;96.60;;;;;;5069717;28;20013;-88
2021/08/10 04:06:41;;;;;;;0.00;0.00;;;21.50;96.50;;;;;;5068738;28;20036;-89
2021/08/10 04:09:07;;;;;;;0.00;0.00;;;21.60;96.30;;;;;;5071658;28;20025;-89
2021/08/10 04:11:33;;;;;;;0.00;0.00;;;21.80;95.90;;;;;;5072802;28;20056;-88
2021/08/10 04:14:00;;;;;;;0.00;0.00;;;21.80;95.50;;;;;;5077403;28;20021;-88
2021/08/10 04:16:28;;;;;;;0.00;0.00;;;21.90;95.40;;;;;;5073865;28;20036;-88
2021/08/10 04:18:55;;;;;;;0.00;0.00;;;22.00;95.20;;;;;;5058148;28;20035;-89
2021/08/10 04:21:25;;;;;;;0.00;0.00;;;22.10;95.00;;;;;;5057705;28;20039;-89
2021/08/10 04:23:51;;;;;;;0.00;0.00;;;22.20;94.60;;;;;;5060407;28;20029;-89
2021/08/10 04:26:16;;;;;;;0.00;0.00;;;22.20;94.40;;;;;;5073913;28;20025;-90
2021/08/10 04:28:42;;;;;;;0.08;0.08;;;22.40;94.20;;;;;;5058087;28;20116;-90
2021/08/10 04:31:08;;;;;;;0.00;0.00;;;22.40;93.90;;;;;;5057965;28;20029;-89
2021/08/10 04:33:34;;;;;;;0.00;0.00;;;22.50;93.60;;;;;;5058764;28;20048;-88
2021/08/10 04:36:00;;;;;;;0.00;0.00;;;22.60;93.20;;;;;;5057848;28;20033;-90
2021/08/10 04:38:25;;;;;;;0.10;0.10;;;22.70;92.70;;;;;;5058718;28;20017;-86
2021/08/10 04:40:52;;;;;;;0.00;0.00;;;22.80;92.40;;;;;;5056779;28;20044;-89
2021/08/10 04:43:18;;;;;;;0.00;0.00;;;22.90;92.10;;;;;;5057580;28;20060;-88
2021/08/10 04:45:44;;;;;;;0.00;0.00;;;23.00;91.90;;;;;;5058189;28;20115;-88
2021/08/10 04:48:10;;;;;;;0.00;0.00;;;23.20;91.60;;;;;;5058691;28;20024;-91
2021/08/10 04:50:35;;;;;;;0.00;0.00;;;23.40;91.60;;;;;;5059062;28;20044;-91
2021/08/10 04:53:01;;;;;;;0.00;0.00;;;23.60;91.50;;;;;;5064494;28;20095;-87
2021/08/10 04:55:27;;;;;;;0.00;0.00;;;23.80;90.90;;;;;;5058959;28;20041;-88
2021/08/10 04:57:53;;;;;;;0.00;0.00;;;24.10;91.30;;;;;;5059588;28;20021;-87
2021/08/10 05:00:19;;;;;;;0.00;0.00;;;24.40;90.70;;;;;;5060477;28;20466;-88
2021/08/10 05:02:44;;;;;;;0.00;0.00;;;24.70;89.90;;;;;;5074019;28;20044;-88
2021/08/10 05:05:10;;;;;;;0.00;0.00;;;25.10;88.30;;;;;;5080362;28;20029;-88
2021/08/10 05:07:36;;;;;;;0.00;0.00;;;25.40;86.10;;;;;;5064611;28;20039;-89
2021/08/10 05:10:03;;;;;;;0.00;0.00;;;25.60;85.30;;;;;;5076330;28;20032;-88
2021/08/10 05:12:29;;;;;;;0.00;0.00;;;25.90;84.10;;;;;;5062874;28;20041;-90
2021/08/10 05:14:54;;;;;;;0.00;0.00;;;26.10;82.20;;;;;;5069867;28;20021;-88
2021/08/10 05:17:20;;;;;;;0.00;0.00;;;26.50;81.20;;;;;;5074669;28;20051;-89
2021/08/10 05:19:46;;;;;;;0.00;0.00;;;26.90;80.30;;;;;;5077959;28;20017;-89
2021/08/10 05:22:14;;;;;;;0.00;0.00;;;27.30;78.80;;;;;;5066969;28;20454;-89
2021/08/10 05:24:40;;;;;;;0.00;0.00;;;27.60;77.00;;;;;;5056045;28;20370;-88
2021/08/10 05:27:05;;;;;;;0.00;0.00;;;27.80;75.50;;;;;;5057027;28;20025;-89
2021/08/10 05:29:31;;;;;;;0.00;0.00;;;28.00;74.80;;;;;;5068736;28;20032;-89
2021/08/10 05:31:57;;;;;;;0.00;0.00;;;28.20;73.80;;;;;;5062466;28;20131;-90
2021/08/10 05:34:22;;;;;;;0.00;0.00;;;28.50;73.20;;;;;;5056651;28;20031;-89
2021/08/10 05:36:48;;;;;;;0.00;0.00;;;28.70;72.30;;;;;;5061814;28;20044;-89
2021/08/10 05:39:14;;;;;;;0.00;0.00;;;28.90;71.30;;;;;;5057813;28;20599;-90
2021/08/10 05:41:40;;;;;;;0.08;0.00;;;29.20;70.40;;;;;;5055994;28;20040;-90
2021/08/10 05:44:06;;;;;;;0.00;0.00;;;29.50;69.40;;;;;;5054752;28;20092;-90
2021/08/10 05:46:31;;;;;;;0.00;0.00;;;29.70;68.50;;;;;;5055030;28;20055;-89
2021/08/10 05:48:58;;;;;;;0.00;0.00;;;29.90;68.40;;;;;;5055158;28;20021;-90
2021/08/10 05:51:25;;;;;;;0.00;0.00;;;30.20;67.40;;;;;;5055920;28;20052;-90
2021/08/10 05:53:51;;;;;;;0.10;0.00;;;30.50;66.40;;;;;;5056442;28;20033;-89
2021/08/10 05:56:16;;;;;;;0.00;0.00;;;30.60;66.40;;;;;;5069449;28;20023;-89
2021/08/10 05:58:42;;;;;;;0.00;0.00;;;30.80;65.00;;;;;;5079395;28;20033;-89
2021/08/10 06:01:08;;;;;;;0.00;0.00;;;31.00;64.50;;;;;;5060748;28;20033;-90
2021/08/10 06:03:38;;;;;;;0.00;0.00;;;31.20;63.90;;;;;;5056884;28;20021;-91
2021/08/10 06:06:04;;;;;;;0.00;0.00;;;31.50;63.40;;;;;;5057236;28;20037;-90
2021/08/10 06:08:30;;;;;;;0.00;0.00;;;31.70;62.80;;;;;;5057953;28;20093;-88
2021/08/10 06:10:57;;;;;;;0.00;0.00;;;31.90;61.70;;;;;;5057035;28;20053;-90
2021/08/10 06:13:23;;;;;;;0.00;0.00;;;32.10;60.90;;;;;;5056423;28;20044;-90
2021/08/10 06:15:49;;;;;;;0.00;0.00;;;32.30;60.60;;;;;;5056682;28;20025;-90
2021/08/10 06:18:16;;;;;;;0.00;0.00;;;32.50;59.50;;;;;;5057941;28;20020;-90
2021/08/10 06:20:43;;;;;;;0.00;0.00;;;32.70;59.00;;;;;;5067726;28;20017;-91
2021/08/10 06:23:09;;;;;;;0.00;0.00;;;33.00;59.20;;;;;;5069893;28;20052;-92
2021/08/10 06:25:35;;;;;;;0.00;0.00;;;33.40;58.80;;;;;;5069549;28;20021;-90
2021/08/10 06:28:01;;;;;;;0.00;0.00;;;33.80;58.60;;;;;;5072532;28;20489;-89
2021/08/10 06:30:27;;;;;;;0.00;0.00;;;34.10;57.50;;;;;;5071099;28;20020;-91
2021/08/10 06:32:53;;;;;;;0.00;0.00;;;34.30;56.80;;;;;;5062785;28;20040;-92
2021/08/10 06:35:19;;;;;;;0.00;0.00;;;34.60;56.40;;;;;;5068464;28;20029;-89
2021/08/10 06:37:45;;;;;;;0.00;0.00;;;34.80;55.80;;;;;;5057249;28;20029;-90
2021/08/10 06:40:11;;;;;;;0.00;0.00;;;34.90;55.20;;;;;;5042192;28;20413;-90
2021/08/10 06:42:37;;;;;;;0.00;0.00;;;34.90;55.10;;;;;;5063156;28;20033;-90
2021/08/10 06:45:03;;;;;;;0.00;0.00;;;34.90;55.00;;;;;;5059077;28;20059;-90
2021/08/10 06:47:28;;;;;;;0.00;0.00;;;35.00;55.20;;;;;;5058216;28;20033;-92
2021/08/10 06:49:54;;;;;;;0.00;0.00;;;35.20;54.70;;;;;;5064828;28;20027;-90
2021/08/10 06:52:21;;;;;;;0.00;0.00;;;35.50;54.70;;;;;;5074183;28;20045;-93
2021/08/10 06:54:47;;;;;;;0.00;0.00;;;35.80;54.50;;;;;;5071687;28;20021;-92
2021/08/10 06:57:16;;;;;;;0.00;0.00;;;36.10;53.90;;;;;;5063956;28;20111;-91
2021/08/10 06:59:41;;;;;;;0.00;0.00;;;36.20;53.50;;;;;;5062939;28;20032;-91
2021/08/10 07:02:09;;;;;;;0.10;0.10;;;36.40;52.80;;;;;;5059662;28;20032;-90
2021/08/10 07:04:36;;;;;;;0.00;0.00;;;36.50;51.90;;;;;;5064573;28;20041;-90
2021/08/10 07:07:05;;;;;;;0.10;0.10;;;36.50;51.90;;;;;;5058267;28;20441;-89
2021/08/10 07:09:32;;;;;;;0.10;0.10;;;36.70;51.80;;;;;;5059396;28;20107;-91
2021/08/10 07:11:58;;;;;;;0.00;0.00;;;37.00;51.80;;;;;;5057743;28;20445;-91
2021/08/10 07:14:24;;;;;;;0.10;0.10;;;37.20;51.00;;;;;;5058562;28;20020;-91
2021/08/10 07:16:50;;;;;;;0.00;0.00;;;37.20;50.20;;;;;;5055180;28;20072;-90
2021/08/10 07:19:16;;;;;;;0.00;0.00;;;37.30;50.50;;;;;;5055823;28;20032;-91
2021/08/10 07:21:42;;;;;;;0.03;0.03;;;37.40;50.40;;;;;;5054234;28;20115;-89
2021/08/10 07:24:08;;;;;;;0.00;0.00;;;37.50;49.90;;;;;;5053875;28;20470;-89
2021/08/10 07:26:35;;;;;;;0.00;0.00;;;37.50;49.90;;;;;;5059418;28;20021;-89
2021/08/10 07:29:01;;;;;;;0.03;0.03;;;37.80;49.80;;;;;;5061491;28;20041;-91
2021/08/10 07:31:27;;;;;;;0.05;0.05;;;38.10;49.50;;;;;;5056608;28;20439;-91
2021/08/10 07:33:53;;;;;;;0.10;0.10;;;38.30;49.10;;;;;;5058896;28;20067;-92
2021/08/10 07:36:18;;;;;;;0.05;0.05;;;38.50;48.80;;;;;;5064072;28;20031;-91
2021/08/10 07:38:45;;;;;;;0.10;0.10;;;38.60;48.60;;;;;;5073129;28;20020;-90
2021/08/10 07:41:12;;;;;;;0.00;0.00;;;38.90;49.10;;;;;;5075973;28;20029;-90
2021/08/10 07:43:38;;;;;;;0.10;0.10;;;38.90;48.00;;;;;;5068818;28;20040;-91
2021/08/10 07:46:04;;;;;;;0.10;0.10;;;38.90;48.10;;;;;;5075508;28;20021;-91
2021/08/10 07:48:30;;;;;;;0.10;0.10;;;39.10;48.10;;;;;;5074857;28;20029;-91
2021/08/10 07:50:56;;;;;;;0.10;0.10;;;39.50;47.90;;;;;;5060513;28;20475;-91
2021/08/10 07:53:23;;;;;;;0.10;0.10;;;39.80;47.80;;;;;;5062437;28;20091;-90
2021/08/10 07:55:49;;;;;;;0.10;0.10;;;40.00;46.80;;;;;;5063296;28;20032;-92
2021/08/10 07:58:16;;;;;;;0.10;0.10;;;40.30;46.60;;;;;;5059147;28;20033;-90
2021/08/10 08:00:41;;;;;;;0.08;0.08;;;40.40;46.50;;;;;;5059230;28;20439;-89
2021/08/10 08:03:07;;;;;;;0.10;0.10;;;40.60;46.20;;;;;;5057962;28;20054;-91
2021/08/10 08:05:33;;;;;;;0.10;0.10;;;40.70;46.30;;;;;;5061550;28;20094;-91
2021/08/10 08:07:59;;;;;;;0.10;0.10;;;40.90;46.20;;;;;;5061389;28;20066;-92
2021/08/10 08:10:29;;;;;;;0.10;0.10;;;41.10;45.90;;;;;;5067376;28;20367;-90
2021/08/10 08:12:57;;;;;;;0.10;0.10;;;41.40;45.60;;;;;;5070164;28;20086;-93
2021/08/10 08:15:26;;;;;;;0.10;0.10;;;41.60;45.00;;;;;;5061898;28;20029;-92
2021/08/10 08:17:51;;;;;;;0.10;0.10;;;41.60;45.10;;;;;;5058534;28;20047;-91
2021/08/10 08:20:18;;;;;;;0.10;0.10;;;41.80;45.20;;;;;;5056426;28;20036;-90
2021/08/10 08:22:45;;;;;;;0.10;0.10;;;42.00;44.50;;;;;;5057380;28;20116;-90
2021/08/10 08:25:11;;;;;;;0.10;0.10;;;41.80;44.30;;;;;;5057816;28;20075;-89
2021/08/10 08:27:37;;;;;;;0.10;0.10;;;41.80;44.30;;;;;;5057653;28;20066;-90
2021/08/10 08:30:05;;;;;;;0.10;0.10;;;42.20;44.30;;;;;;5057546;28;20048;-90
2021/08/10 08:32:31;;;;;;;0.10;0.10;;;42.50;43.90;;;;;;5059277;28;20048;-90
2021/08/10 08:34:57;;;;;;;0.10;0.10;;;42.60;43.50;;;;;;5058708;28;20021;-90
2021/08/10 08:37:23;;;;;;;0.10;0.10;;;42.80;43.40;;;;;;5064283;28;20033;-91
2021/08/10 08:39:49;;;;;;;0.10;0.10;;;42.80;43.10;;;;;;5074391;28;20032;-90
2021/08/10 08:42:15;;;;;;;0.10;0.10;;;42.80;43.00;;;;;;5069662;28;20264;-87
2021/08/10 08:44:41;;;;;;;0.10;0.10;;;42.90;42.80;;;;;;5073024;28;20028;-88
2021/08/10 08:47:10;;;;;;;0.10;0.10;;;43.00;42.70;;;;;;5062639;28;20032;-90
2021/08/10 08:49:37;;;;;;;0.10;0.10;;;43.10;42.60;;;;;;5071704;28;20033;-90
2021/08/10 08:52:09;;;;;;;0.20;0.20;;;43.30;42.10;;;;;;5079128;28;20025;-90
2021/08/10 08:54:35;;;;;;;0.10;0.10;;;43.30;42.10;;;;;;5074429;28;20025;-90
2021/08/10 08:57:03;;;;;;;0.10;0.10;;;43.10;42.10;;;;;;5060814;28;20033;-91
2021/08/10 08:59:29;;;;;;;0.10;0.10;;;42.90;42.50;;;;;;5057072;28;20031;-90
2021/08/10 09:01:55;;;;;;;0.10;0.10;;;42.70;42.40;;;;;;5061232;28;20111;-90
2021/08/10 09:04:21;;;;;;;0.10;0.10;;;42.90;42.90;;;;;;5057568;28;20104;-89
2021/08/10 09:06:49;;;;;;;0.10;0.10;;;43.20;42.50;;;;;;5055956;28;20107;-89
2021/08/10 09:09:17;;;;;;;0.10;0.10;;;43.40;42.30;;;;;;5061282;28;20029;-89
2021/08/10 09:11:51;;;;;;;0.10;0.10;;;43.20;41.90;;;;;;5066226;28;20013;-89
2021/08/10 09:14:18;;;;;;;0.10;0.10;;;43.10;42.00;;;;;;5075817;28;20013;-91
2021/08/10 09:17:10;;;;;;;0.10;0.10;;;43.20;42.20;;;;;;5063002;28;20021;-91
2021/08/10 09:20:02;;;;;;;0.10;0.10;;;43.50;42.30;;;;;;5057362;28;20040;-90
2021/08/10 09:22:33;;;;;;;0.10;0.10;;;43.50;41.60;;;;;;5069638;28;20100;-89
2021/08/10 09:25:12;;;;;;;0.10;0.10;;;43.40;41.80;;;;;;5067254;28;20394;-92
2021/08/10 09:27:39;;;;;;;0.10;0.10;;;43.40;41.70;;;;;;5059036;28;20055;-87
2021/08/10 09:30:24;;;;;;;0.10;0.10;;;43.50;41.40;;;;;;5062034;28;20029;-89
2021/08/10 09:32:54;;;;;;;0.20;0.20;;;43.20;40.90;;;;;;5062167;28;20052;-90
2021/08/10 09:35:22;;;;;;;0.10;0.10;;;42.90;41.50;;;;;;5066661;28;20041;-90
2021/08/10 09:38:09;;;;;;;0.10;0.10;;;43.10;41.40;;;;;;5071626;28;20045;-91
2021/08/10 09:40:44;;;;;;;0.15;0.15;;;43.30;41.40;;;;;;5076683;28;20029;-90
2021/08/10 09:43:28;;;;;;;0.10;0.10;;;43.60;41.40;;;;;;5060392;28;20041;-90
2021/08/10 09:46:15;;;;;;;0.10;0.10;;;43.80;41.20;;;;;;5056181;28;20115;-91
2021/08/10 09:48:56;;;;;;;0.10;0.10;;;44.10;40.80;;;;;;5055330;28;20473;-91
2021/08/10 09:51:25;;;;;;;0.10;0.10;;;44.30;40.40;;;;;;5056827;28;20025;-91
2021/08/10 09:53:54;;;;;;;0.10;0.10;;;44.20;41.30;;;;;;5058416;28;20044;-92
2021/08/10 09:56:19;;;;;;;0.10;0.10;;;44.20;40.60;;;;;;5057540;28;20025;-88
2021/08/10 09:58:59;;;;;;;0.10;0.10;;;44.50;40.60;;;;;;5057416;28;20033;-90
2021/08/10 10:01:35;;;;;;;0.20;0.20;;;44.90;40.40;;;;;;5059904;28;20021;-90
2021/08/10 10:04:18;;;;;;;0.17;0.17;;;45.20;40.20;;;;;;5066680;28;20037;-91
2021/08/10 10:06:47;;;;;;;0.20;0.20;;;45.30;39.40;;;;;;5058351;28;20386;-91
2021/08/10 10:09:13;;;;;;;0.20;0.20;;;45.20;39.70;;;;;;5057267;28;20041;-90
2021/08/10 10:11:41;;;;;;;0.20;0.20;;;45.20;39.90;;;;;;5055124;28;20111;-89
2021/08/10 10:14:08;;;;;;;0.20;0.20;;;45.30;40.00;;;;;;5060833;28;20119;-87
2021/08/10 10:16:35;;;;;;;0.20;0.20;;;45.20;39.70;;;;;;5059531;28;20048;-89
2021/08/10 10:19:12;;;;;;;0.20;0.20;;;45.20;40.00;;;;;;5057403;28;20120;-91
2021/08/10 10:21:48;;;;;;;0.10;0.10;;;45.00;40.00;;;;;;5061442;28;20511;-91
2021/08/10 10:24:16;;;;;;;0.20;0.20;;;44.80;40.20;;;;;;5065810;28;20033;-92
2021/08/10 10:27:06;;;;;;;0.20;0.20;;;44.80;40.20;;;;;;5079008;28;20161;-91
2021/08/10 10:29:56;;;;;;;0.20;0.20;;;45.00;40.00;;;;;;5064969;28;20063;-93
2021/08/10 10:32:32;;;;;;;0.20;0.20;;;45.40;39.80;;;;;;5057515;28;20052;-92
2021/08/10 10:34:57;;;;;;;0.20;0.20;;;45.30;39.80;;;;;;5065094;28;20028;-91
2021/08/10 10:37:42;;;;;;;0.20;0.20;;;45.60;40.10;;;;;;5071473;28;20044;-92
2021/08/10 10:40:12;;;;;;;0.20;0.20;;;45.80;39.70;;;;;;5059369;28;20056;-92
2021/08/10 10:42:54;;;;;;;0.20;0.20;;;45.70;39.70;;;;;;5067893;28;20374;-91
2021/08/10 10:45:46;;;;;;;0.20;0.20;;;45.70;38.90;;;;;;5070065;28;20040;-93
2021/08/10 10:48:53;;;;;;;0.20;0.20;;;45.20;39.40;;;;;;5070623;28;20047;-91
2021/08/10 10:51:42;;;;;;;0.20;0.20;;;45.30;39.30;;;;;;5065067;28;20049;-91
2021/08/10 10:54:29;;;;;;;0.20;0.20;;;45.20;39.30;;;;;;5064989;28;20097;-92
2021/08/10 10:57:00;;;;;;;0.10;0.10;;;45.10;39.30;;;;;;5071770;28;20017;-91
2021/08/10 10:59:37;;;;;;;0.10;0.10;;;44.90;39.40;;;;;;5060908;28;20029;-92
2021/08/10 11:02:17;;;;;;;0.10;0.10;;;45.00;39.60;;;;;;5060549;28;20025;-91
2021/08/10 11:05:08;;;;;;;0.13;0.13;;;45.30;39.30;;;;;;5056942;28;20037;-92
2021/08/10 11:07:39;;;;;;;0.20;0.20;;;45.40;39.00;;;;;;5056394;28;20593;-91
2021/08/10 11:10:06;;;;;;;0.20;0.20;;;45.40;39.20;;;;;;5057869;28;20036;-91
2021/08/10 11:12:33;;;;;;;0.20;0.20;;;45.60;39.00;;;;;;5057156;28;20033;-90
2021/08/10 11:15:02;;;;;;;0.10;0.10;;;45.90;39.00;;;;;;5074366;28;20064;-91
2021/08/10 11:17:28;;;;;;;0.20;0.20;;;46.20;38.80;;;;;;5071487;28;20036;-92
2021/08/10 11:19:53;;;;;;;0.20;0.20;;;46.30;38.50;;;;;;5061379;28;20505;-91
2021/08/10 11:22:19;;;;;;;0.20;0.20;;;46.20;38.20;;;;;;5065817;28;20017;-92
2021/08/10 11:25:13;;;;;;;0.20;0.20;;;46.40;37.90;;;;;;5061817;28;20033;-91
2021/08/10 11:27:45;;;;;;;0.20;0.20;;;46.20;38.00;;;;;;5070165;28;20037;-91
2021/08/10 11:30:44;;;;;;;0.20;0.20;;;46.00;38.00;;;;;;5073385;28;20037;-91
2021/08/10 11:33:30;;;;;;;0.20;0.20;;;45.90;38.00;;;;;;5057166;28;20100;-90
2021/08/10 11:36:09;;;;;;;0.10;0.10;;;46.00;37.90;;;;;;5058378;28;20048;-91
2021/08/10 11:38:57;;;;;;;0.20;0.20;;;46.30;38.00;;;;;;5057405;28;20032;-92
2021/08/10 11:41:31;;;;;;;0.20;0.20;;;46.60;38.10;;;;;;5066241;28;20093;-90
2021/08/10 11:44:03;;;;;;;0.20;0.20;;;46.80;37.90;;;;;;5067334;28;20025;-93
2021/08/10 11:46:36;;;;;;;0.10;0.10;;;46.80;37.70;;;;;;5071597;28;20037;-91
2021/08/10 11:49:37;;;;;;;0.20;0.20;;;46.80;37.70;;;;;;5077203;28;20019;-92
2021/08/10 11:52:03;;;;;;;0.20;0.20;;;46.50;37.40;;;;;;5034473;23;20081;-87
2021/08/10 11:54:28;;;;;;;0.20;0.20;;;46.40;37.90;;;;;;5003341;28;20031;-87
2021/08/10 11:57:06;;;;;;;0.10;0.10;;;46.60;37.90;;;;;;4995414;28;20030;-86
2021/08/10 11:59:32;;;;;;;0.10;0.10;;;46.50;37.50;;;;;;4997605;28;20037;-88
2021/08/10 12:02:02;;;;;;;0.17;0.17;;;46.10;38.00;;;;;;4996686;28;20058;-90
2021/08/10 12:04:29;;;;;;;0.20;0.20;;;45.90;38.00;;;;;;4995795;28;20031;-87
2021/08/10 12:06:57;;;;;;;0.10;0.10;;;45.90;38.00;;;;;;4996825;28;20022;-87
2021/08/10 12:09:26;;;;;;;0.20;0.20;;;45.90;38.00;;;;;;5003062;28;20027;-87
2021/08/10 12:11:58;;;;;;;0.10;0.10;;;46.00;37.90;;;;;;5014820;28;20015;-87
2021/08/10 12:14:27;;;;;;;0.10;0.10;;;45.80;37.90;;;;;;5010134;28;20438;-88
2021/08/10 12:17:08;;;;;;;0.20;0.20;;;45.70;38.00;;;;;;4999194;28;20030;-87
2021/08/10 12:19:43;;;;;;;0.10;0.10;;;45.60;38.40;;;;;;4997425;28;20122;-87
2021/08/10 12:22:09;;;;;;;0.13;0.13;;;45.70;38.20;;;;;;4997373;28;20062;-87
2021/08/10 12:24:39;;;;;;;0.10;0.10;;;45.70;38.30;;;;;;4995639;28;20391;-87
2021/08/10 12:27:06;;;;;;;0.10;0.10;;;46.00;38.20;;;;;;4995373;28;20034;-88
2021/08/10 12:29:49;;;;;;;0.10;0.10;;;46.10;38.20;;;;;;4995927;28;20057;-86
2021/08/10 12:32:26;;;;;;;0.15;0.15;;;46.40;38.20;;;;;;4997959;28;20046;-88
2021/08/10 12:34:53;;;;;;;0.13;0.13;;;46.40;38.20;;;;;;4995858;28;20037;-86
2021/08/10 12:37:28;;;;;;;0.10;0.10;;;46.50;37.90;;;;;;5001229;28;20086;-87
2021/08/10 12:39:54;;;;;;;0.10;0.10;;;46.50;37.40;;;;;;5003016;28;20187;-86
2021/08/10 12:42:20;;;;;;;0.10;0.10;;;46.30;38.00;;;;;;5004640;28;20065;-87
2021/08/10 12:44:50;;;;;;;0.20;0.20;;;46.40;37.80;;;;;;5003712;28;20019;-87
2021/08/10 12:47:16;;;;;;;0.20;0.20;;;46.50;37.70;;;;;;5007744;28;20460;-88
2021/08/10 12:49:45;;;;;;;0.10;0.10;;;46.10;37.80;;;;;;5006226;28;20033;-88
2021/08/10 12:52:13;;;;;;;0.10;0.10;;;45.90;38.00;;;;;;5003583;28;20125;-88
2021/08/10 12:54:58;;;;;;;0.10;0.10;;;46.00;37.90;;;;;;5002250;28;20054;-87
2021/08/10 12:57:26;;;;;;;0.10;0.10;;;46.20;37.80;;;;;;5004066;28;20037;-87
2021/08/10 12:59:55;;;;;;;0.10;0.10;;;46.30;37.80;;;;;;5002617;28;20030;-89